SAS73A ENGM-EKCH
Flight info
| Callsign | SAS73A |
|---|---|
| Flight time | N/A |
| Altitude | 37000 |
| Route | OKSAT L996 KELIN DCT TOPLA L996 ERNOV |
| Aircraft | A320/M-SDE3FGHIJ1RWXYZ/ALB1 |
Departure
| Time | 2026-05-06 06:08 |
|---|---|
| Airport | Oslo-Gardermoen International Airport (ENGM) |
Arrival
| Time | N/A |
|---|---|
| Airport | Copenhagen Kastrup Airport (EKCH) |
| Time | Latitude | Longitude | Altitude | Speed | Heading |
|---|---|---|---|---|---|
| 2026-05-06 06:04 | 60.17622 | 11.10534 | 689 ft | 0 kts | 107° |
| 2026-05-06 06:05 | 60.17621 | 11.10540 | 689 ft | 2 kts | 106° |
| 2026-05-06 06:05 | 60.17609 | 11.10619 | 689 ft | 8 kts | 106° |
| 2026-05-06 06:05 | 60.17601 | 11.10750 | 689 ft | 10 kts | 72° |
| 2026-05-06 06:06 | 60.17658 | 11.10828 | 689 ft | 0 kts | 12° |
| 2026-05-06 06:07 | 60.17748 | 11.10875 | 689 ft | 38 kts | 17° |
| 2026-05-06 06:07 | 60.18219 | 11.11150 | 689 ft | 101 kts | 17° |
| 2026-05-06 06:08 | 60.19086 | 11.11645 | 689 ft | 153 kts | 15° |
| 2026-05-06 06:08 | 60.20185 | 11.12276 | 977 ft | 171 kts | 15° |
| 2026-05-06 06:08 | 60.21273 | 11.13141 | 1633 ft | 169 kts | 39° |
| 2026-05-06 06:08 | 60.21798 | 11.15126 | 2293 ft | 170 kts | 80° |
| 2026-05-06 06:09 | 60.21872 | 11.17564 | 2745 ft | 183 kts | 86° |
| 2026-05-06 06:09 | 60.21919 | 11.20204 | 3151 ft | 194 kts | 88° |
| 2026-05-06 06:09 | 60.22018 | 11.22968 | 3550 ft | 205 kts | 81° |
| 2026-05-06 06:09 | 60.22245 | 11.25898 | 3910 ft | 222 kts | 81° |
| 2026-05-06 06:10 | 60.22493 | 11.29075 | 4288 ft | 241 kts | 80° |
| 2026-05-06 06:10 | 60.22785 | 11.32512 | 4747 ft | 257 kts | 77° |
| 2026-05-06 06:10 | 60.23230 | 11.36036 | 5262 ft | 271 kts | 72° |
| 2026-05-06 06:10 | 60.23808 | 11.39680 | 6112 ft | 271 kts | 74° |
| 2026-05-06 06:11 | 60.24263 | 11.43326 | 6876 ft | 275 kts | 77° |
| 2026-05-06 06:11 | 60.24667 | 11.47096 | 7613 ft | 280 kts | 83° |